createdAt,value
2016-09-18T00:00:23.820Z,99.99
2016-09-18T00:01:04.369Z,99.99
2016-09-18T00:01:44.914Z,99.99
2016-09-18T00:02:25.458Z,99.99
2016-09-18T00:03:06.001Z,99.99
2016-09-18T00:03:46.552Z,99.99
2016-09-18T00:04:27.100Z,99.99
2016-09-18T00:05:07.643Z,99.99
2016-09-18T00:05:48.182Z,99.99
2016-09-18T00:06:28.718Z,99.99
2016-09-18T00:07:09.258Z,99.99
2016-09-18T00:07:49.808Z,99.99
2016-09-18T00:08:30.348Z,99.99
2016-09-18T00:09:10.889Z,99.99
2016-09-18T00:09:51.450Z,99.99
2016-09-18T00:10:31.989Z,99.99
2016-09-18T00:11:12.540Z,99.99
2016-09-18T00:11:53.085Z,99.99
2016-09-18T00:12:33.633Z,99.99
2016-09-18T00:13:14.178Z,99.99
2016-09-18T00:13:54.728Z,99.99
2016-09-18T00:14:35.274Z,99.99
2016-09-18T00:15:15.816Z,99.99
2016-09-18T00:15:56.360Z,99.99
2016-09-18T00:16:36.898Z,99.99
2016-09-18T00:17:17.446Z,99.99
2016-09-18T00:17:58.010Z,99.99
2016-09-18T00:18:38.528Z,99.99
2016-09-18T00:19:19.077Z,99.99
2016-09-18T00:19:59.618Z,99.99
2016-09-18T00:20:40.159Z,99.99
2016-09-18T00:21:20.709Z,99.99
2016-09-18T00:22:01.235Z,99.99
2016-09-18T00:22:41.780Z,99.99
2016-09-18T00:23:22.321Z,99.99
2016-09-18T00:24:02.866Z,99.99
2016-09-18T00:24:43.410Z,99.99
2016-09-18T00:25:23.933Z,99.99
2016-09-18T00:26:04.468Z,99.99
2016-09-18T00:26:45.013Z,99.99
2016-09-18T00:27:25.564Z,99.99
2016-09-18T00:28:06.104Z,99.99
2016-09-18T00:28:46.653Z,99.99
2016-09-18T00:29:27.199Z,99.99
2016-09-18T00:30:07.761Z,99.99
2016-09-18T00:30:48.318Z,99.99
2016-09-18T00:31:28.864Z,99.99
2016-09-18T00:32:09.410Z,99.99
2016-09-18T00:32:49.958Z,99.99
2016-09-18T00:33:30.529Z,99.99
2016-09-18T00:34:11.077Z,99.99
2016-09-18T00:34:51.624Z,99.99
2016-09-18T00:35:32.176Z,99.99
2016-09-18T00:36:12.719Z,99.99
2016-09-18T00:36:53.264Z,99.99
2016-09-18T00:37:33.815Z,99.99
2016-09-18T00:38:14.357Z,99.99
2016-09-18T00:38:54.903Z,99.99
2016-09-18T00:39:35.447Z,99.99
2016-09-18T00:40:15.983Z,99.99
2016-09-18T00:40:56.526Z,99.99
2016-09-18T00:41:37.068Z,99.99
2016-09-18T00:42:17.615Z,99.99
2016-09-18T00:42:58.169Z,99.99
2016-09-18T00:43:38.688Z,99.99
2016-09-18T00:44:19.227Z,99.99
2016-09-18T00:44:59.775Z,99.99
2016-09-18T00:45:40.332Z,99.99
2016-09-18T00:46:20.871Z,99.99
2016-09-18T00:47:01.414Z,99.99
2016-09-18T00:47:41.963Z,99.99
2016-09-18T00:48:22.488Z,99.99
2016-09-18T00:49:03.029Z,99.99
2016-09-18T00:49:43.572Z,99.99
2016-09-18T00:50:24.112Z,99.99
2016-09-18T00:51:04.655Z,99.99
2016-09-18T00:51:45.194Z,99.99
2016-09-18T00:52:25.738Z,99.99
2016-09-18T00:53:06.272Z,99.99
2016-09-18T00:53:46.819Z,99.99
2016-09-18T00:54:27.365Z,99.99
2016-09-18T00:55:07.913Z,99.99
2016-09-18T00:55:48.440Z,99.99
2016-09-18T00:56:28.989Z,99.99
2016-09-18T00:57:09.525Z,99.99
2016-09-18T00:57:50.073Z,99.99
2016-09-18T00:58:30.617Z,99.99
2016-09-18T00:59:11.152Z,99.99
2016-09-18T00:59:51.698Z,99.99
2016-09-18T01:00:32.252Z,99.99
2016-09-18T01:01:12.799Z,99.99
2016-09-18T01:01:53.341Z,99.99
2016-09-18T01:02:33.901Z,99.99
2016-09-18T01:03:14.446Z,99.99
2016-09-18T01:03:54.991Z,99.99
2016-09-18T01:04:35.531Z,99.99
2016-09-18T01:05:16.075Z,99.99
2016-09-18T01:05:56.622Z,99.99
2016-09-18T01:06:37.152Z,99.99
2016-09-18T01:07:17.680Z,99.99
2016-09-18T01:07:58.231Z,99.99
2016-09-18T01:08:38.760Z,99.99
2016-09-18T01:09:19.308Z,99.99
2016-09-18T01:09:59.859Z,99.99
2016-09-18T01:10:40.388Z,99.99
2016-09-18T01:11:20.935Z,99.99
2016-09-18T01:12:01.482Z,99.99
2016-09-18T01:12:42.015Z,99.99
2016-09-18T01:13:22.534Z,99.99
2016-09-18T01:14:03.070Z,99.99
2016-09-18T01:14:43.615Z,99.99
2016-09-18T01:15:24.149Z,99.99
2016-09-18T01:16:04.693Z,99.99
2016-09-18T01:16:45.243Z,99.99
2016-09-18T01:17:25.790Z,99.99
2016-09-18T01:18:06.335Z,99.99
2016-09-18T01:18:46.888Z,99.99
2016-09-18T01:19:27.433Z,99.99
2016-09-18T01:20:07.973Z,99.99
2016-09-18T01:20:48.511Z,99.99
2016-09-18T01:21:29.053Z,99.99
2016-09-18T01:22:09.599Z,99.99
2016-09-18T01:22:50.149Z,99.99
2016-09-18T01:23:30.686Z,99.99
2016-09-18T01:24:11.225Z,99.99
2016-09-18T01:24:51.773Z,99.99
2016-09-18T01:25:32.326Z,99.99
2016-09-18T01:26:12.874Z,99.99
2016-09-18T01:26:53.422Z,99.99
2016-09-18T01:27:33.954Z,99.99
2016-09-18T01:28:14.503Z,99.99
2016-09-18T01:28:55.045Z,99.99
2016-09-18T01:29:35.584Z,99.99
2016-09-18T01:30:16.123Z,99.99
2016-09-18T01:30:56.651Z,99.99
2016-09-18T01:31:37.201Z,99.99
2016-09-18T01:32:17.736Z,99.99
2016-09-18T01:32:58.282Z,99.99
2016-09-18T01:33:38.831Z,99.99
2016-09-18T01:34:19.385Z,99.99
2016-09-18T01:34:59.926Z,99.99
2016-09-18T01:35:40.475Z,99.99
2016-09-18T01:36:21.022Z,99.99
2016-09-18T01:37:01.556Z,99.99
2016-09-18T01:37:42.094Z,99.99
2016-09-18T01:38:22.629Z,99.99
2016-09-18T01:39:03.171Z,99.99
2016-09-18T01:39:43.709Z,99.99
2016-09-18T01:40:24.258Z,99.99
2016-09-18T01:41:04.807Z,99.99
2016-09-18T01:41:45.342Z,99.99
2016-09-18T01:42:25.891Z,99.99
2016-09-18T01:43:06.429Z,99.99
2016-09-18T01:43:46.970Z,99.99
2016-09-18T01:44:27.517Z,99.99
2016-09-18T01:45:08.058Z,99.99
2016-09-18T01:45:48.612Z,99.99
2016-09-18T01:46:29.171Z,99.99
2016-09-18T01:47:09.715Z,99.99
2016-09-18T01:47:50.263Z,99.99
2016-09-18T01:48:30.815Z,99.99
2016-09-18T01:49:11.348Z,99.99
2016-09-18T01:49:51.890Z,99.99
2016-09-18T01:50:32.425Z,99.99
2016-09-18T01:51:12.971Z,99.99
2016-09-18T01:51:53.516Z,99.99
2016-09-18T01:52:34.068Z,99.99
2016-09-18T01:53:14.603Z,99.99
2016-09-18T01:53:55.163Z,99.99
2016-09-18T01:54:35.705Z,99.99
2016-09-18T01:55:16.251Z,99.99
2016-09-18T01:55:56.803Z,99.99
2016-09-18T01:56:37.348Z,99.99
2016-09-18T01:57:17.884Z,99.99
2016-09-18T01:57:58.433Z,99.99
2016-09-18T01:58:38.984Z,99.99
2016-09-18T01:59:19.512Z,99.99
2016-09-18T02:00:00.076Z,99.99
2016-09-18T02:00:40.630Z,99.99
2016-09-18T02:01:21.139Z,99.99
2016-09-18T02:02:01.672Z,99.99
2016-09-18T02:02:42.221Z,99.99
2016-09-18T02:03:22.767Z,99.99
2016-09-18T02:04:03.327Z,99.99
2016-09-18T02:04:43.856Z,99.99
2016-09-18T02:05:24.414Z,99.99
2016-09-18T02:06:04.966Z,99.99
2016-09-18T02:06:45.516Z,99.99
2016-09-18T02:07:26.060Z,99.99
2016-09-18T02:08:06.607Z,99.99
2016-09-18T02:08:47.141Z,99.99
2016-09-18T02:09:27.690Z,99.99
2016-09-18T02:10:08.239Z,99.99
2016-09-18T02:10:48.785Z,99.99
2016-09-18T02:11:29.328Z,99.99
2016-09-18T02:12:09.867Z,99.99
2016-09-18T02:12:50.397Z,99.99
2016-09-18T02:13:30.951Z,99.99
2016-09-18T02:14:11.500Z,99.99
2016-09-18T02:14:52.032Z,99.99
2016-09-18T02:15:32.577Z,99.99
2016-09-18T02:16:13.130Z,99.99
2016-09-18T02:16:53.677Z,99.99
2016-09-18T02:17:34.217Z,99.99
2016-09-18T02:18:14.759Z,99.99
2016-09-18T02:18:55.303Z,99.99
2016-09-18T02:19:35.832Z,99.99
2016-09-18T02:20:16.373Z,99.99
2016-09-18T02:20:56.935Z,99.99
2016-09-18T02:21:37.464Z,99.99
2016-09-18T02:22:18.005Z,99.99
2016-09-18T02:22:58.547Z,99.99
2016-09-18T02:23:39.086Z,99.99
2016-09-18T02:24:19.632Z,99.99
2016-09-18T02:25:00.175Z,99.99
2016-09-18T02:25:40.726Z,99.99
2016-09-18T02:26:21.262Z,99.99
2016-09-18T02:27:01.808Z,99.99
2016-09-18T02:27:42.338Z,99.99
2016-09-18T02:28:22.892Z,99.99
2016-09-18T02:29:03.422Z,99.99
2016-09-18T02:29:43.958Z,99.99
2016-09-18T02:30:24.496Z,99.99
2016-09-18T02:31:05.041Z,99.99
2016-09-18T02:31:45.590Z,99.99
2016-09-18T02:32:26.141Z,99.99
2016-09-18T02:33:06.688Z,99.99
2016-09-18T02:33:47.245Z,99.99
2016-09-18T02:34:27.786Z,99.99
2016-09-18T02:35:08.344Z,99.99
2016-09-18T02:35:48.887Z,99.99
2016-09-18T02:36:29.431Z,99.99
2016-09-18T02:37:09.975Z,99.99
2016-09-18T02:37:50.514Z,99.99
2016-09-18T02:38:31.061Z,99.99
2016-09-18T02:39:11.599Z,99.99
2016-09-18T02:39:52.144Z,99.99
2016-09-18T02:40:32.689Z,99.99
2016-09-18T02:41:13.226Z,99.99
2016-09-18T02:41:53.774Z,99.99
2016-09-18T02:42:34.307Z,99.99
2016-09-18T02:43:14.854Z,99.99
2016-09-18T02:43:55.402Z,99.99
2016-09-18T02:44:35.948Z,99.99
2016-09-18T02:45:16.490Z,99.99
2016-09-18T02:45:57.039Z,99.99
2016-09-18T02:46:37.588Z,99.99
2016-09-18T02:47:18.135Z,99.99
2016-09-18T02:47:58.677Z,99.99
2016-09-18T02:48:39.222Z,99.99
2016-09-18T02:49:19.768Z,99.99
2016-09-18T02:50:00.294Z,99.99
2016-09-18T02:50:40.832Z,99.99
2016-09-18T02:51:21.381Z,99.99
2016-09-18T02:52:01.917Z,99.99
2016-09-18T02:52:42.465Z,99.99
2016-09-18T02:53:23.013Z,99.99
2016-09-18T02:54:03.542Z,99.99
2016-09-18T02:54:44.083Z,99.99
2016-09-18T02:55:24.635Z,99.99
2016-09-18T02:56:05.182Z,99.99
2016-09-18T02:56:45.714Z,99.99
2016-09-18T02:57:26.255Z,99.99
2016-09-18T02:58:06.783Z,99.99
2016-09-18T02:58:47.322Z,99.99
2016-09-18T02:59:27.862Z,99.99
2016-09-18T03:00:08.414Z,99.99
2016-09-18T03:00:48.969Z,99.99
2016-09-18T03:01:29.515Z,99.99
2016-09-18T03:02:10.056Z,99.99
2016-09-18T03:02:50.599Z,99.99
2016-09-18T03:03:31.144Z,99.99
2016-09-18T03:04:11.691Z,99.99
2016-09-18T03:04:52.237Z,99.99
2016-09-18T03:05:32.790Z,99.99
2016-09-18T03:06:13.333Z,99.99
2016-09-18T03:06:53.878Z,99.99
2016-09-18T03:07:34.423Z,99.99
2016-09-18T03:08:14.971Z,99.99
2016-09-18T03:08:55.503Z,99.99
2016-09-18T03:09:36.051Z,99.99
2016-09-18T03:10:16.599Z,99.99
2016-09-18T03:10:57.140Z,99.99
2016-09-18T03:11:37.685Z,99.99
2016-09-18T03:12:18.233Z,99.99
2016-09-18T03:12:58.785Z,99.99
2016-09-18T03:13:39.326Z,99.99
2016-09-18T03:14:19.863Z,99.99
2016-09-18T03:15:00.399Z,99.99
2016-09-18T03:15:40.935Z,99.99
2016-09-18T03:16:21.481Z,99.99
2016-09-18T03:17:02.029Z,99.99
2016-09-18T03:17:42.571Z,99.99
2016-09-18T03:18:23.112Z,99.99
2016-09-18T03:19:03.661Z,99.99
2016-09-18T03:19:44.191Z,99.99
2016-09-18T03:20:24.741Z,99.99
2016-09-18T03:21:05.289Z,99.99
2016-09-18T03:21:45.836Z,99.99
2016-09-18T03:22:26.387Z,99.99
2016-09-18T03:23:06.927Z,99.99
2016-09-18T03:23:47.487Z,99.99
2016-09-18T03:24:28.037Z,99.99
2016-09-18T03:25:08.602Z,99.99
2016-09-18T03:25:49.136Z,99.99
2016-09-18T03:26:29.677Z,99.99
2016-09-18T03:27:10.224Z,99.99
2016-09-18T03:27:50.767Z,99.99
2016-09-18T03:28:31.310Z,99.99
2016-09-18T03:29:11.844Z,99.99
2016-09-18T03:29:52.377Z,99.99
2016-09-18T03:30:32.924Z,99.99
2016-09-18T03:31:13.475Z,99.99
2016-09-18T03:31:54.007Z,99.99
2016-09-18T03:32:34.553Z,99.99
2016-09-18T03:33:15.104Z,99.99
2016-09-18T03:33:55.662Z,99.99
2016-09-18T03:34:36.205Z,99.99
2016-09-18T03:35:16.757Z,99.99
2016-09-18T03:35:57.313Z,99.99
2016-09-18T03:36:37.860Z,99.99
2016-09-18T03:37:18.399Z,99.99
2016-09-18T03:37:58.949Z,99.99
2016-09-18T03:38:39.552Z,99.99
2016-09-18T03:39:20.085Z,99.99
2016-09-18T03:40:00.617Z,99.99
2016-09-18T03:40:41.153Z,99.99
2016-09-18T03:41:21.713Z,99.99
2016-09-18T03:42:02.259Z,99.99
2016-09-18T03:42:42.807Z,99.99
2016-09-18T03:43:23.353Z,99.99
2016-09-18T03:44:03.898Z,99.99
2016-09-18T03:44:44.446Z,99.99
2016-09-18T03:45:25.002Z,99.99
2016-09-18T03:46:05.546Z,99.99
2016-09-18T03:46:46.092Z,99.99
2016-09-18T03:47:26.630Z,99.99
2016-09-18T03:48:07.170Z,99.99
2016-09-18T03:48:47.717Z,99.99
2016-09-18T03:49:28.265Z,99.99
2016-09-18T03:50:08.802Z,99.99
2016-09-18T03:50:49.346Z,99.99
2016-09-18T03:51:29.886Z,99.99
2016-09-18T03:52:10.412Z,99.99
2016-09-18T03:52:50.945Z,99.99
2016-09-18T03:53:31.494Z,99.99
2016-09-18T03:54:12.040Z,99.99
2016-09-18T03:54:52.588Z,99.99
2016-09-18T03:55:33.133Z,99.99
2016-09-18T03:56:13.663Z,99.99
2016-09-18T03:56:54.216Z,99.99
2016-09-18T03:57:34.757Z,99.99
2016-09-18T03:58:15.280Z,99.99
2016-09-18T03:58:55.827Z,99.99
2016-09-18T03:59:36.373Z,99.99
2016-09-18T04:00:16.909Z,99.99
2016-09-18T04:00:57.461Z,99.99
2016-09-18T04:01:38.005Z,99.99
2016-09-18T04:02:18.537Z,99.99
2016-09-18T04:02:59.085Z,99.99
2016-09-18T04:03:39.631Z,99.99
2016-09-18T04:04:20.167Z,99.99
2016-09-18T04:05:00.712Z,99.99
2016-09-18T04:05:41.271Z,99.99
2016-09-18T04:06:21.801Z,99.99
2016-09-18T04:07:02.342Z,99.99
2016-09-18T04:07:42.890Z,99.99
2016-09-18T04:08:23.421Z,99.99
2016-09-18T04:09:03.965Z,99.99
2016-09-18T04:09:44.518Z,99.99
2016-09-18T04:10:25.065Z,99.99
2016-09-18T04:11:05.599Z,99.99
2016-09-18T04:11:46.168Z,99.99
2016-09-18T04:12:26.698Z,99.99
2016-09-18T04:13:07.225Z,99.99
2016-09-18T04:13:47.772Z,99.99
2016-09-18T04:14:28.327Z,99.99
2016-09-18T04:15:08.852Z,99.99
2016-09-18T04:15:49.399Z,99.99
2016-09-18T04:16:29.941Z,99.99
2016-09-18T04:17:10.489Z,99.99
2016-09-18T04:17:51.065Z,99.99
2016-09-18T04:18:31.612Z,99.99
2016-09-18T04:19:12.158Z,99.99
2016-09-18T04:19:52.707Z,99.99
2016-09-18T04:20:33.265Z,99.99
2016-09-18T04:21:13.807Z,99.99
2016-09-18T04:21:54.347Z,99.99
2016-09-18T04:22:34.889Z,99.99
2016-09-18T04:23:15.425Z,99.99
2016-09-18T04:23:55.966Z,99.99
2016-09-18T04:24:36.505Z,99.99
2016-09-18T04:25:17.112Z,99.99
2016-09-18T04:25:57.610Z,99.99
2016-09-18T04:26:38.153Z,99.99
2016-09-18T04:27:18.694Z,99.99
2016-09-18T04:27:59.237Z,99.99
2016-09-18T04:28:39.784Z,99.99
2016-09-18T04:29:20.329Z,99.99
2016-09-18T04:30:00.894Z,99.99
2016-09-18T04:30:41.436Z,99.99
2016-09-18T04:31:21.987Z,99.99
2016-09-18T04:32:02.517Z,99.99
2016-09-18T04:32:43.068Z,99.99
2016-09-18T04:33:23.601Z,99.99
2016-09-18T04:34:04.145Z,99.99
2016-09-18T04:34:44.684Z,99.99
2016-09-18T04:35:25.217Z,99.99
2016-09-18T04:36:05.767Z,99.99
2016-09-18T04:36:46.320Z,99.99
2016-09-18T04:37:26.850Z,99.99
2016-09-18T04:38:07.400Z,99.99
2016-09-18T04:38:47.934Z,99.99
2016-09-18T04:39:28.476Z,99.99
2016-09-18T04:40:09.025Z,99.99
2016-09-18T04:40:49.576Z,99.99
2016-09-18T04:41:30.121Z,99.99
2016-09-18T04:42:10.659Z,99.99
2016-09-18T04:42:51.208Z,99.99
2016-09-18T04:43:31.756Z,99.99
2016-09-18T04:44:12.301Z,99.99
2016-09-18T04:44:52.882Z,99.99
2016-09-18T04:45:33.410Z,99.99
2016-09-18T04:46:13.951Z,99.99
2016-09-18T04:46:54.492Z,99.99
2016-09-18T04:47:35.024Z,99.99
2016-09-18T04:48:15.556Z,99.99
2016-09-18T04:48:56.105Z,99.99
2016-09-18T04:49:36.649Z,99.99
2016-09-18T04:50:17.190Z,99.99
2016-09-18T04:50:57.740Z,99.99
2016-09-18T04:51:38.287Z,99.99
2016-09-18T04:52:18.819Z,99.99
2016-09-18T04:52:59.368Z,99.99
2016-09-18T04:53:39.909Z,99.99
2016-09-18T04:54:20.453Z,99.99
2016-09-18T04:55:00.994Z,99.99
2016-09-18T04:55:41.524Z,99.99
2016-09-18T04:56:22.068Z,99.99
2016-09-18T04:57:02.612Z,99.99
2016-09-18T04:57:43.154Z,99.99
2016-09-18T04:58:23.707Z,99.99
2016-09-18T04:59:04.274Z,99.99
2016-09-18T04:59:44.818Z,99.99
2016-09-18T05:00:25.343Z,99.99
2016-09-18T05:01:05.885Z,99.99
2016-09-18T05:01:46.427Z,99.99
2016-09-18T05:02:26.969Z,99.99
2016-09-18T05:03:07.515Z,99.99
2016-09-18T05:03:48.056Z,99.99
2016-09-18T05:04:28.605Z,99.99
2016-09-18T05:05:09.148Z,99.99
2016-09-18T05:05:49.698Z,99.99
2016-09-18T05:06:30.228Z,99.99
2016-09-18T05:07:10.794Z,99.99
2016-09-18T05:07:51.364Z,99.99
2016-09-18T05:08:31.901Z,99.99
2016-09-18T05:09:12.437Z,99.99
2016-09-18T05:09:52.984Z,99.99
2016-09-18T05:10:33.514Z,99.99
2016-09-18T05:11:14.060Z,99.99
2016-09-18T05:11:54.608Z,99.99
2016-09-18T05:12:35.159Z,99.99
2016-09-18T05:13:15.716Z,99.99
2016-09-18T05:13:56.261Z,99.99
2016-09-18T05:14:36.792Z,99.99
2016-09-18T05:15:17.324Z,99.99
2016-09-18T05:17:11.380Z,99.99
2016-09-18T05:17:51.911Z,99.99
2016-09-18T05:18:32.435Z,99.99
2016-09-18T05:19:12.959Z,99.99
2016-09-18T05:19:53.499Z,99.99
2016-09-18T05:20:34.055Z,99.99
2016-09-18T05:21:14.587Z,99.99
2016-09-18T05:21:55.133Z,99.99
2016-09-18T05:22:35.663Z,99.99
2016-09-18T05:23:16.202Z,99.99
2016-09-18T05:23:56.744Z,99.99
2016-09-18T05:24:37.283Z,99.99
2016-09-18T05:25:17.984Z,99.99
2016-09-18T05:25:58.651Z,99.99
2016-09-18T05:26:39.193Z,99.99
2016-09-18T05:27:19.721Z,99.99
2016-09-18T05:28:00.257Z,99.99
2016-09-18T05:28:40.787Z,99.99
2016-09-18T05:29:21.310Z,99.99
2016-09-18T05:30:01.845Z,99.99
2016-09-18T05:30:42.393Z,99.99
2016-09-18T05:31:22.929Z,99.99
2016-09-18T05:32:03.463Z,99.99
2016-09-18T05:32:44.003Z,99.99
2016-09-18T05:33:24.547Z,99.99
2016-09-18T05:34:05.095Z,99.99
2016-09-18T05:34:45.782Z,99.99
2016-09-18T05:35:26.320Z,99.99
2016-09-18T05:36:06.864Z,99.99
2016-09-18T05:36:47.411Z,99.99
2016-09-18T05:37:27.960Z,99.99
2016-09-18T05:38:08.501Z,99.99
2016-09-18T05:38:49.042Z,99.99
2016-09-18T05:39:29.592Z,99.99
2016-09-18T05:40:10.141Z,99.99
2016-09-18T05:40:50.688Z,99.99
2016-09-18T05:41:31.225Z,99.99
2016-09-18T05:42:11.755Z,99.99
2016-09-18T05:42:52.297Z,99.99
2016-09-18T05:43:32.834Z,99.99
2016-09-18T05:44:13.669Z,99.99
2016-09-18T05:44:54.217Z,99.99
2016-09-18T05:45:34.767Z,99.99
2016-09-18T05:46:15.316Z,99.99
2016-09-18T05:46:55.857Z,99.99
2016-09-18T05:47:36.405Z,99.99
2016-09-18T05:48:16.952Z,99.99
2016-09-18T05:48:57.503Z,99.99
2016-09-18T05:49:38.046Z,99.99
2016-09-18T05:50:18.584Z,99.99
2016-09-18T05:50:59.119Z,99.99
2016-09-18T05:51:39.658Z,99.99
2016-09-18T05:52:20.207Z,99.99
2016-09-18T05:53:00.746Z,99.99
2016-09-18T05:53:41.287Z,99.99
2016-09-18T05:54:21.839Z,99.99
2016-09-18T05:55:02.389Z,99.99
2016-09-18T05:55:43.203Z,99.99
2016-09-18T05:56:23.757Z,99.99
2016-09-18T05:57:04.301Z,99.99
2016-09-18T05:57:44.843Z,99.99
2016-09-18T05:58:25.390Z,99.99
2016-09-18T05:59:05.921Z,99.99
2016-09-18T05:59:46.453Z,99.99
2016-09-18T06:00:27.001Z,99.99
2016-09-18T06:01:07.533Z,99.99
2016-09-18T06:01:48.076Z,99.99
2016-09-18T06:02:28.615Z,99.99
2016-09-18T06:03:09.158Z,99.99
2016-09-18T06:03:49.704Z,99.99
2016-09-18T06:04:30.249Z,99.99
2016-09-18T06:05:10.793Z,99.99
2016-09-18T06:05:51.331Z,99.99
2016-09-18T06:06:31.874Z,99.99
2016-09-18T06:07:12.412Z,99.99
2016-09-18T06:07:52.951Z,99.99
2016-09-18T06:08:33.508Z,99.99
2016-09-18T06:09:14.045Z,99.99
2016-09-18T06:09:54.598Z,99.99
2016-09-18T06:10:35.140Z,99.99
2016-09-18T06:11:15.686Z,99.99
2016-09-18T06:11:56.223Z,99.99
2016-09-18T06:12:36.752Z,99.99
2016-09-18T06:13:17.285Z,99.99
2016-09-18T06:13:57.833Z,99.99
2016-09-18T06:14:38.377Z,99.99
2016-09-18T06:15:18.912Z,99.99
2016-09-18T06:15:59.458Z,99.99
2016-09-18T06:16:40.007Z,99.99
2016-09-18T06:17:20.556Z,99.99
2016-09-18T06:18:01.101Z,99.99
2016-09-18T06:18:41.645Z,99.99
2016-09-18T06:19:22.187Z,99.99
2016-09-18T06:20:02.730Z,99.99
2016-09-18T06:20:43.278Z,99.99
2016-09-18T06:21:23.825Z,99.99
2016-09-18T06:22:04.376Z,99.99
2016-09-18T06:22:44.908Z,99.99
2016-09-18T06:23:25.463Z,99.99
2016-09-18T06:24:05.994Z,99.99
2016-09-18T06:24:46.545Z,99.99
2016-09-18T06:25:27.087Z,99.99
2016-09-18T06:26:07.631Z,99.99
2016-09-18T06:26:48.179Z,99.99
2016-09-18T06:27:28.728Z,99.99
2016-09-18T06:28:09.270Z,99.99
2016-09-18T06:28:49.852Z,99.99
2016-09-18T06:29:30.347Z,99.99
2016-09-18T06:30:10.884Z,99.99
2016-09-18T06:30:51.423Z,99.99
2016-09-18T06:31:31.950Z,99.99
2016-09-18T06:32:12.495Z,99.99
2016-09-18T06:32:53.036Z,99.99
2016-09-18T06:33:33.593Z,99.99
2016-09-18T06:34:14.136Z,99.99
2016-09-18T06:34:54.689Z,99.99
2016-09-18T06:35:35.234Z,99.99
2016-09-18T06:36:15.778Z,99.99
2016-09-18T06:36:56.323Z,99.99
2016-09-18T06:37:36.864Z,99.99
2016-09-18T06:38:17.412Z,99.99
2016-09-18T06:38:57.956Z,99.99
2016-09-18T06:39:38.494Z,99.99
2016-09-18T06:40:19.028Z,99.99
2016-09-18T06:40:59.572Z,99.99
2016-09-18T06:41:40.114Z,99.99
2016-09-18T06:42:20.663Z,99.99
2016-09-18T06:43:01.201Z,99.99
2016-09-18T06:43:41.746Z,99.99
2016-09-18T06:44:22.668Z,99.99
2016-09-18T06:45:03.343Z,99.99
2016-09-18T06:45:43.884Z,99.99
2016-09-18T06:46:24.432Z,99.99
2016-09-18T06:47:04.980Z,99.99
2016-09-18T06:47:45.520Z,99.99
2016-09-18T06:48:26.065Z,99.99
2016-09-18T06:49:06.991Z,99.99
2016-09-18T06:49:47.540Z,99.99
2016-09-18T06:50:28.077Z,99.99
2016-09-18T06:51:08.620Z,99.99
2016-09-18T06:51:49.171Z,99.99
2016-09-18T06:52:29.708Z,99.99
2016-09-18T06:53:10.249Z,99.99
2016-09-18T06:53:50.795Z,99.99
2016-09-18T06:54:31.342Z,99.99
2016-09-18T06:55:11.890Z,99.99
2016-09-18T06:55:52.429Z,99.99
2016-09-18T06:56:32.976Z,99.99
2016-09-18T06:57:13.535Z,99.99
2016-09-18T06:57:54.075Z,99.99
2016-09-18T06:58:34.611Z,99.99
2016-09-18T06:59:15.151Z,99.99
2016-09-18T06:59:55.779Z,99.99
2016-09-18T07:00:36.218Z,99.99
2016-09-18T07:01:16.780Z,99.99
2016-09-18T07:01:57.322Z,99.99
2016-09-18T07:02:37.871Z,99.99
2016-09-18T07:03:18.415Z,99.99
2016-09-18T07:03:58.961Z,99.99
2016-09-18T07:04:39.504Z,99.99
2016-09-18T07:05:20.054Z,99.99
2016-09-18T07:06:00.871Z,99.99
2016-09-18T07:06:41.404Z,99.99
2016-09-18T07:07:22.100Z,99.99
2016-09-18T07:08:02.649Z,99.99
2016-09-18T07:08:43.196Z,99.99
2016-09-18T07:09:23.744Z,99.99
2016-09-18T07:10:04.535Z,99.99
2016-09-18T07:10:45.080Z,99.99
2016-09-18T07:11:25.627Z,99.99
2016-09-18T07:12:06.174Z,99.99
2016-09-18T07:12:46.706Z,99.99
2016-09-18T07:13:27.253Z,99.99
2016-09-18T07:14:07.789Z,99.99
2016-09-18T07:14:48.330Z,99.99
2016-09-18T07:15:28.890Z,99.99
2016-09-18T07:16:09.415Z,99.99
2016-09-18T07:16:49.971Z,99.99
2016-09-18T07:17:30.513Z,99.99
2016-09-18T07:18:11.318Z,99.99
2016-09-18T07:18:51.869Z,99.99
2016-09-18T07:19:32.416Z,99.99
2016-09-18T07:20:12.957Z,99.99
2016-09-18T07:20:53.497Z,99.99
2016-09-18T07:21:34.029Z,99.99
2016-09-18T07:22:14.567Z,99.99
2016-09-18T07:22:55.114Z,99.99
2016-09-18T07:23:35.651Z,99.99
2016-09-18T07:24:16.171Z,99.99
2016-09-18T07:24:56.717Z,99.99
2016-09-18T07:25:37.247Z,99.99
2016-09-18T07:26:17.777Z,99.99
2016-09-18T07:26:58.320Z,99.99
2016-09-18T07:27:38.857Z,99.99
2016-09-18T07:28:19.401Z,99.99
2016-09-18T07:28:59.938Z,99.99
2016-09-18T07:29:40.468Z,99.99
2016-09-18T07:30:21.001Z,99.77
2016-09-18T07:31:01.552Z,99.77
2016-09-18T07:31:42.071Z,99.99
2016-09-18T07:32:22.626Z,99.49
2016-09-18T07:33:03.277Z,99.1
2016-09-18T07:33:43.779Z,99.49
2016-09-18T07:34:24.366Z,99.2
2016-09-18T07:35:04.848Z,99.49
2016-09-18T07:35:45.592Z,99.2
2016-09-18T07:36:26.141Z,99.49
2016-09-18T07:37:06.693Z,98.72
2016-09-18T07:37:47.238Z,99.15
2016-09-18T07:38:27.787Z,98.91
2016-09-18T07:39:08.302Z,99.1
2016-09-18T07:39:48.822Z,98.77
2016-09-18T07:40:29.456Z,99.15
2016-09-18T07:41:09.890Z,99.01
2016-09-18T07:41:50.438Z,98.96
2016-09-18T07:42:30.967Z,98.58
2016-09-18T07:43:11.484Z,98.58
2016-09-18T07:43:52.008Z,98.67
2016-09-18T07:44:32.558Z,98.48
2016-09-18T07:45:13.093Z,98.67
2016-09-18T07:45:53.677Z,98.19
2016-09-18T07:46:34.215Z,97.71
2016-09-18T07:47:14.744Z,98.1
2016-09-18T07:47:55.342Z,97.66
2016-09-18T07:48:35.823Z,98.34
2016-09-18T07:49:16.347Z,97.86
2016-09-18T07:49:56.886Z,97.57
2016-09-18T07:50:37.446Z,96.8
2016-09-18T07:51:18.034Z,97.28
2016-09-18T07:51:58.602Z,97.66
2016-09-18T07:52:39.226Z,96.22
2016-09-18T07:53:19.845Z,96.99
2016-09-18T07:54:00.376Z,97.38
2016-09-18T07:54:40.896Z,97.38
2016-09-18T07:55:21.440Z,96.42
2016-09-18T07:56:01.991Z,96.32
2016-09-18T07:56:42.569Z,96.32
2016-09-18T07:57:23.162Z,96.51
2016-09-18T07:58:03.677Z,96.27
2016-09-18T07:58:44.258Z,96.08
2016-09-18T07:59:24.777Z,96.47
2016-09-18T08:00:05.305Z,96.94
2016-09-18T08:00:45.843Z,96.66
2016-09-18T08:01:26.392Z,96.56
2016-09-18T08:02:06.936Z,96.47
2016-09-18T08:02:47.478Z,96.75
2016-09-18T08:03:28.004Z,96.08
2016-09-18T08:04:08.548Z,96.27
2016-09-18T08:04:49.202Z,95.98
2016-09-18T08:05:29.854Z,95.98
2016-09-18T08:06:10.388Z,95.98
2016-09-18T08:06:50.918Z,96.08
2016-09-18T08:07:31.474Z,96.27
2016-09-18T08:08:12.012Z,95.79
2016-09-18T08:08:52.539Z,95.98
2016-09-18T08:09:33.078Z,95.98
2016-09-18T08:10:13.619Z,95.7
2016-09-18T08:10:54.159Z,95.98
2016-09-18T08:11:34.705Z,96.03
2016-09-18T08:12:15.259Z,96.03
2016-09-18T08:12:55.795Z,95.36
2016-09-18T08:13:36.341Z,95.65
2016-09-18T08:14:16.890Z,95.45
2016-09-18T08:14:57.440Z,95.26
2016-09-18T08:15:38.204Z,94.78
2016-09-18T08:16:18.759Z,94.98
2016-09-18T08:16:59.305Z,94.59
2016-09-18T08:17:39.853Z,94.31
2016-09-18T08:18:20.413Z,94.11
2016-09-18T08:19:00.961Z,93.82
2016-09-18T08:19:41.513Z,94.01
2016-09-18T08:20:22.058Z,94.11
2016-09-18T08:21:02.598Z,94.01
2016-09-18T08:21:43.142Z,93.54
2016-09-18T08:22:23.689Z,93.63
2016-09-18T08:23:04.243Z,93.54
2016-09-18T08:23:44.794Z,93.25
2016-09-18T08:24:25.341Z,93.44
2016-09-18T08:25:05.892Z,93.58
2016-09-18T08:25:46.446Z,93.77
2016-09-18T08:26:26.995Z,93.39
2016-09-18T08:27:07.549Z,93.58
2016-09-18T08:27:48.099Z,93.29
2016-09-18T08:28:28.649Z,93.19
2016-09-18T08:29:09.188Z,93.29
2016-09-18T08:29:49.739Z,93.19
2016-09-18T08:30:30.290Z,93.58
2016-09-18T08:31:10.840Z,92.72
2016-09-18T08:31:51.380Z,92.91
2016-09-18T08:32:31.931Z,92.91
2016-09-18T08:33:12.481Z,93.1
2016-09-18T08:33:53.027Z,92.72
2016-09-18T08:34:33.575Z,92.52
2016-09-18T08:35:14.117Z,92.72
2016-09-18T08:35:54.684Z,92.72
2016-09-18T08:36:35.228Z,92.72
2016-09-18T08:37:15.764Z,92.43
2016-09-18T08:37:56.309Z,92.57
2016-09-18T08:38:36.858Z,92.29
2016-09-18T08:39:17.397Z,92.47
2016-09-18T08:39:57.947Z,91.9
2016-09-18T08:40:38.521Z,92.09
2016-09-18T08:41:19.069Z,91.8
2016-09-18T08:41:59.619Z,91.9
2016-09-18T08:42:40.168Z,91.22
2016-09-18T08:43:20.717Z,91.32
2016-09-18T08:44:01.249Z,91.13